sensor_id;sensor_type;location;lat;lon;timestamp;P1;durP1;ratioP1;P2;durP2;ratioP2
16037;SDS011;8123;50.906;6.172;2023-07-31T00:01:42;10.93;;;5.33;;
16037;SDS011;8123;50.906;6.172;2023-07-31T00:04:07;16.50;;;5.30;;
16037;SDS011;8123;50.906;6.172;2023-07-31T00:06:33;12.30;;;5.07;;
16037;SDS011;8123;50.906;6.172;2023-07-31T00:08:58;13.60;;;4.60;;
16037;SDS011;8123;50.906;6.172;2023-07-31T00:11:24;9.47;;;5.57;;
16037;SDS011;8123;50.906;6.172;2023-07-31T00:13:50;14.30;;;5.03;;
16037;SDS011;8123;50.906;6.172;2023-07-31T00:16:15;7.63;;;4.50;;
16037;SDS011;8123;50.906;6.172;2023-07-31T00:18:41;15.00;;;5.20;;
16037;SDS011;8123;50.906;6.172;2023-07-31T00:21:06;17.93;;;5.40;;
16037;SDS011;8123;50.906;6.172;2023-07-31T00:23:32;15.87;;;5.03;;
16037;SDS011;8123;50.906;6.172;2023-07-31T00:25:58;10.60;;;4.30;;
16037;SDS011;8123;50.906;6.172;2023-07-31T00:28:23;10.90;;;5.03;;
16037;SDS011;8123;50.906;6.172;2023-07-31T00:30:49;7.73;;;4.83;;
16037;SDS011;8123;50.906;6.172;2023-07-31T00:33:14;11.97;;;5.70;;
16037;SDS011;8123;50.906;6.172;2023-07-31T00:35:40;12.77;;;5.33;;
16037;SDS011;8123;50.906;6.172;2023-07-31T00:38:05;9.07;;;4.60;;
16037;SDS011;8123;50.906;6.172;2023-07-31T00:40:34;10.20;;;4.97;;
16037;SDS011;8123;50.906;6.172;2023-07-31T00:43:02;12.00;;;4.70;;
16037;SDS011;8123;50.906;6.172;2023-07-31T00:45:28;13.17;;;5.73;;
16037;SDS011;8123;50.906;6.172;2023-07-31T00:47:54;12.97;;;4.77;;
16037;SDS011;8123;50.906;6.172;2023-07-31T00:50:22;12.40;;;5.40;;
16037;SDS011;8123;50.906;6.172;2023-07-31T00:52:49;7.13;;;3.80;;
16037;SDS011;8123;50.906;6.172;2023-07-31T00:55:15;13.13;;;4.97;;
16037;SDS011;8123;50.906;6.172;2023-07-31T00:57:41;16.40;;;5.00;;
16037;SDS011;8123;50.906;6.172;2023-07-31T01:00:07;15.70;;;5.20;;
16037;SDS011;8123;50.906;6.172;2023-07-31T01:02:33;7.40;;;4.47;;
16037;SDS011;8123;50.906;6.172;2023-07-31T01:05:00;13.13;;;5.40;;
16037;SDS011;8123;50.906;6.172;2023-07-31T01:07:28;13.93;;;5.53;;
16037;SDS011;8123;50.906;6.172;2023-07-31T01:10:09;19.83;;;4.77;;
16037;SDS011;8123;50.906;6.172;2023-07-31T01:12:41;10.00;;;4.80;;
16037;SDS011;8123;50.906;6.172;2023-07-31T01:15:09;11.70;;;4.53;;
16037;SDS011;8123;50.906;6.172;2023-07-31T01:17:57;12.23;;;4.40;;
16037;SDS011;8123;50.906;6.172;2023-07-31T01:20:24;13.60;;;4.90;;
16037;SDS011;8123;50.906;6.172;2023-07-31T01:22:58;18.30;;;5.27;;
16037;SDS011;8123;50.906;6.172;2023-07-31T01:25:46;10.47;;;5.10;;
16037;SDS011;8123;50.906;6.172;2023-07-31T01:28:23;11.17;;;4.47;;
16037;SDS011;8123;50.906;6.172;2023-07-31T01:30:54;19.13;;;6.03;;
16037;SDS011;8123;50.906;6.172;2023-07-31T01:33:23;10.97;;;5.30;;
16037;SDS011;8123;50.906;6.172;2023-07-31T01:35:49;9.93;;;4.47;;
16037;SDS011;8123;50.906;6.172;2023-07-31T01:38:15;12.93;;;5.13;;
16037;SDS011;8123;50.906;6.172;2023-07-31T01:40:45;12.93;;;5.03;;
16037;SDS011;8123;50.906;6.172;2023-07-31T01:43:17;14.87;;;6.47;;
16037;SDS011;8123;50.906;6.172;2023-07-31T01:45:42;10.40;;;4.90;;
16037;SDS011;8123;50.906;6.172;2023-07-31T01:48:08;9.87;;;5.27;;
16037;SDS011;8123;50.906;6.172;2023-07-31T01:50:34;8.93;;;5.00;;
16037;SDS011;8123;50.906;6.172;2023-07-31T01:52:59;14.10;;;5.87;;
16037;SDS011;8123;50.906;6.172;2023-07-31T01:55:25;8.87;;;4.80;;
16037;SDS011;8123;50.906;6.172;2023-07-31T01:57:51;21.03;;;6.03;;
16037;SDS011;8123;50.906;6.172;2023-07-31T02:00:17;15.27;;;5.03;;
16037;SDS011;8123;50.906;6.172;2023-07-31T02:02:43;11.23;;;5.20;;
16037;SDS011;8123;50.906;6.172;2023-07-31T02:05:08;13.63;;;5.40;;
16037;SDS011;8123;50.906;6.172;2023-07-31T02:07:34;10.87;;;5.53;;
16037;SDS011;8123;50.906;6.172;2023-07-31T02:10:00;9.07;;;4.60;;
16037;SDS011;8123;50.906;6.172;2023-07-31T02:12:25;14.50;;;5.70;;
16037;SDS011;8123;50.906;6.172;2023-07-31T02:14:51;15.10;;;5.90;;
16037;SDS011;8123;50.906;6.172;2023-07-31T02:17:17;23.90;;;5.80;;
16037;SDS011;8123;50.906;6.172;2023-07-31T02:19:42;19.13;;;6.00;;
16037;SDS011;8123;50.906;6.172;2023-07-31T02:22:08;14.20;;;6.00;;
16037;SDS011;8123;50.906;6.172;2023-07-31T02:24:33;10.37;;;5.60;;
16037;SDS011;8123;50.906;6.172;2023-07-31T02:26:59;12.33;;;5.60;;
16037;SDS011;8123;50.906;6.172;2023-07-31T02:29:25;13.97;;;6.10;;
16037;SDS011;8123;50.906;6.172;2023-07-31T02:31:50;12.50;;;5.97;;
16037;SDS011;8123;50.906;6.172;2023-07-31T02:34:16;11.63;;;5.20;;
16037;SDS011;8123;50.906;6.172;2023-07-31T02:36:41;12.27;;;5.50;;
16037;SDS011;8123;50.906;6.172;2023-07-31T02:39:07;13.70;;;5.57;;
16037;SDS011;8123;50.906;6.172;2023-07-31T02:41:33;14.40;;;5.87;;
16037;SDS011;8123;50.906;6.172;2023-07-31T02:43:58;12.00;;;5.37;;
16037;SDS011;8123;50.906;6.172;2023-07-31T02:46:24;18.13;;;6.50;;
16037;SDS011;8123;50.906;6.172;2023-07-31T02:48:50;15.60;;;5.33;;
16037;SDS011;8123;50.906;6.172;2023-07-31T02:51:16;15.77;;;5.80;;
16037;SDS011;8123;50.906;6.172;2023-07-31T02:53:42;15.37;;;5.93;;
16037;SDS011;8123;50.906;6.172;2023-07-31T02:56:07;10.33;;;5.10;;
16037;SDS011;8123;50.906;6.172;2023-07-31T02:58:33;12.43;;;6.17;;
16037;SDS011;8123;50.906;6.172;2023-07-31T03:00:59;12.33;;;6.10;;
16037;SDS011;8123;50.906;6.172;2023-07-31T03:03:24;20.47;;;6.07;;
16037;SDS011;8123;50.906;6.172;2023-07-31T03:05:50;15.33;;;5.70;;
16037;SDS011;8123;50.906;6.172;2023-07-31T03:08:16;16.67;;;6.83;;
16037;SDS011;8123;50.906;6.172;2023-07-31T03:10:41;10.60;;;6.70;;
16037;SDS011;8123;50.906;6.172;2023-07-31T03:13:07;15.40;;;6.00;;
16037;SDS011;8123;50.906;6.172;2023-07-31T03:15:32;14.47;;;5.67;;
16037;SDS011;8123;50.906;6.172;2023-07-31T03:17:58;9.93;;;5.60;;
16037;SDS011;8123;50.906;6.172;2023-07-31T03:20:24;15.07;;;6.20;;
16037;SDS011;8123;50.906;6.172;2023-07-31T03:22:49;14.67;;;6.00;;
16037;SDS011;8123;50.906;6.172;2023-07-31T03:25:15;16.90;;;6.80;;
16037;SDS011;8123;50.906;6.172;2023-07-31T03:27:40;11.47;;;5.93;;
16037;SDS011;8123;50.906;6.172;2023-07-31T03:30:06;9.70;;;6.17;;
16037;SDS011;8123;50.906;6.172;2023-07-31T03:32:32;11.57;;;7.10;;
16037;SDS011;8123;50.906;6.172;2023-07-31T03:34:58;11.53;;;6.43;;
16037;SDS011;8123;50.906;6.172;2023-07-31T03:37:23;11.37;;;6.80;;
16037;SDS011;8123;50.906;6.172;2023-07-31T03:39:49;16.37;;;7.13;;
16037;SDS011;8123;50.906;6.172;2023-07-31T03:42:15;17.20;;;6.30;;
16037;SDS011;8123;50.906;6.172;2023-07-31T03:44:40;12.43;;;7.03;;
16037;SDS011;8123;50.906;6.172;2023-07-31T03:47:06;8.47;;;6.27;;
16037;SDS011;8123;50.906;6.172;2023-07-31T03:49:31;11.33;;;5.90;;
16037;SDS011;8123;50.906;6.172;2023-07-31T03:51:57;12.73;;;6.83;;
16037;SDS011;8123;50.906;6.172;2023-07-31T03:54:23;11.60;;;5.80;;
16037;SDS011;8123;50.906;6.172;2023-07-31T03:56:48;15.67;;;6.20;;
16037;SDS011;8123;50.906;6.172;2023-07-31T03:59:14;13.20;;;5.60;;
16037;SDS011;8123;50.906;6.172;2023-07-31T04:01:40;14.25;;;6.25;;
16037;SDS011;8123;50.906;6.172;2023-07-31T04:04:05;15.33;;;6.70;;
16037;SDS011;8123;50.906;6.172;2023-07-31T04:06:31;13.23;;;7.13;;
16037;SDS011;8123;50.906;6.172;2023-07-31T04:08:56;12.93;;;6.23;;
16037;SDS011;8123;50.906;6.172;2023-07-31T04:11:22;13.97;;;6.17;;
16037;SDS011;8123;50.906;6.172;2023-07-31T04:13:48;13.47;;;6.67;;
16037;SDS011;8123;50.906;6.172;2023-07-31T04:16:13;10.37;;;5.60;;
16037;SDS011;8123;50.906;6.172;2023-07-31T04:18:39;13.00;;;5.60;;
16037;SDS011;8123;50.906;6.172;2023-07-31T04:21:04;13.43;;;5.43;;
16037;SDS011;8123;50.906;6.172;2023-07-31T04:23:30;7.83;;;5.80;;
16037;SDS011;8123;50.906;6.172;2023-07-31T04:25:56;10.27;;;5.53;;
16037;SDS011;8123;50.906;6.172;2023-07-31T04:28:21;13.50;;;6.20;;
16037;SDS011;8123;50.906;6.172;2023-07-31T04:30:47;13.00;;;6.70;;
16037;SDS011;8123;50.906;6.172;2023-07-31T04:33:13;12.27;;;6.30;;
16037;SDS011;8123;50.906;6.172;2023-07-31T04:35:38;12.17;;;6.07;;
16037;SDS011;8123;50.906;6.172;2023-07-31T04:38:04;8.10;;;5.27;;
16037;SDS011;8123;50.906;6.172;2023-07-31T04:40:30;7.63;;;5.00;;
16037;SDS011;8123;50.906;6.172;2023-07-31T04:42:56;16.13;;;4.90;;
16037;SDS011;8123;50.906;6.172;2023-07-31T04:45:22;8.93;;;5.40;;
16037;SDS011;8123;50.906;6.172;2023-07-31T04:47:47;9.23;;;5.30;;
16037;SDS011;8123;50.906;6.172;2023-07-31T04:50:13;10.00;;;5.63;;
16037;SDS011;8123;50.906;6.172;2023-07-31T04:52:39;15.70;;;6.20;;
16037;SDS011;8123;50.906;6.172;2023-07-31T04:55:04;8.80;;;5.57;;
16037;SDS011;8123;50.906;6.172;2023-07-31T04:57:30;13.07;;;5.17;;
16037;SDS011;8123;50.906;6.172;2023-07-31T04:59:56;8.20;;;5.40;;
16037;SDS011;8123;50.906;6.172;2023-07-31T05:02:21;10.90;;;5.23;;
16037;SDS011;8123;50.906;6.172;2023-07-31T05:04:47;6.30;;;4.57;;
16037;SDS011;8123;50.906;6.172;2023-07-31T05:07:12;8.27;;;4.90;;
16037;SDS011;8123;50.906;6.172;2023-07-31T05:09:38;20.07;;;5.00;;
16037;SDS011;8123;50.906;6.172;2023-07-31T05:12:04;10.43;;;4.57;;
16037;SDS011;8123;50.906;6.172;2023-07-31T05:14:31;10.73;;;4.73;;
16037;SDS011;8123;50.906;6.172;2023-07-31T05:16:56;7.00;;;4.87;;
16037;SDS011;8123;50.906;6.172;2023-07-31T05:19:22;6.77;;;4.70;;
16037;SDS011;8123;50.906;6.172;2023-07-31T05:21:47;7.17;;;3.77;;
16037;SDS011;8123;50.906;6.172;2023-07-31T05:24:13;8.13;;;4.50;;
16037;SDS011;8123;50.906;6.172;2023-07-31T05:26:39;6.53;;;4.43;;
16037;SDS011;8123;50.906;6.172;2023-07-31T05:29:04;9.63;;;4.77;;
16037;SDS011;8123;50.906;6.172;2023-07-31T05:31:30;7.23;;;4.87;;
16037;SDS011;8123;50.906;6.172;2023-07-31T05:33:57;10.13;;;4.03;;
16037;SDS011;8123;50.906;6.172;2023-07-31T05:36:23;11.33;;;5.00;;
16037;SDS011;8123;50.906;6.172;2023-07-31T05:38:48;13.20;;;5.33;;
16037;SDS011;8123;50.906;6.172;2023-07-31T05:41:14;6.63;;;4.63;;
16037;SDS011;8123;50.906;6.172;2023-07-31T05:43:40;12.07;;;5.83;;
16037;SDS011;8123;50.906;6.172;2023-07-31T05:46:06;13.40;;;5.23;;
16037;SDS011;8123;50.906;6.172;2023-07-31T05:48:32;14.80;;;5.43;;
16037;SDS011;8123;50.906;6.172;2023-07-31T05:50:59;8.93;;;5.50;;
16037;SDS011;8123;50.906;6.172;2023-07-31T05:53:24;14.13;;;5.30;;
16037;SDS011;8123;50.906;6.172;2023-07-31T05:55:50;17.13;;;6.17;;
16037;SDS011;8123;50.906;6.172;2023-07-31T05:58:16;7.80;;;4.50;;
16037;SDS011;8123;50.906;6.172;2023-07-31T06:00:41;8.93;;;5.10;;
16037;SDS011;8123;50.906;6.172;2023-07-31T06:03:07;11.17;;;5.63;;
16037;SDS011;8123;50.906;6.172;2023-07-31T06:05:32;16.63;;;5.03;;
16037;SDS011;8123;50.906;6.172;2023-07-31T06:07:58;9.20;;;4.90;;
16037;SDS011;8123;50.906;6.172;2023-07-31T06:10:24;11.80;;;5.33;;
16037;SDS011;8123;50.906;6.172;2023-07-31T06:12:50;7.03;;;5.90;;
16037;SDS011;8123;50.906;6.172;2023-07-31T06:15:15;9.50;;;4.90;;
16037;SDS011;8123;50.906;6.172;2023-07-31T06:17:41;5.87;;;5.03;;
16037;SDS011;8123;50.906;6.172;2023-07-31T06:20:08;4.73;;;4.20;;
16037;SDS011;8123;50.906;6.172;2023-07-31T06:22:33;13.33;;;5.60;;
16037;SDS011;8123;50.906;6.172;2023-07-31T06:24:59;9.83;;;5.03;;
16037;SDS011;8123;50.906;6.172;2023-07-31T06:27:24;9.63;;;4.53;;
16037;SDS011;8123;50.906;6.172;2023-07-31T06:29:50;14.63;;;4.50;;
16037;SDS011;8123;50.906;6.172;2023-07-31T06:32:16;10.70;;;5.07;;
16037;SDS011;8123;50.906;6.172;2023-07-31T06:34:42;12.37;;;4.97;;
16037;SDS011;8123;50.906;6.172;2023-07-31T06:37:07;11.37;;;5.10;;
16037;SDS011;8123;50.906;6.172;2023-07-31T06:39:33;8.90;;;4.70;;
16037;SDS011;8123;50.906;6.172;2023-07-31T06:41:59;10.33;;;5.13;;
16037;SDS011;8123;50.906;6.172;2023-07-31T06:44:24;7.20;;;4.80;;
16037;SDS011;8123;50.906;6.172;2023-07-31T06:46:50;9.43;;;4.60;;
16037;SDS011;8123;50.906;6.172;2023-07-31T06:49:16;14.30;;;6.17;;
16037;SDS011;8123;50.906;6.172;2023-07-31T06:51:41;11.10;;;4.33;;
16037;SDS011;8123;50.906;6.172;2023-07-31T06:54:08;13.43;;;5.10;;
16037;SDS011;8123;50.906;6.172;2023-07-31T06:56:33;10.83;;;5.63;;
16037;SDS011;8123;50.906;6.172;2023-07-31T06:58:59;9.50;;;5.00;;
16037;SDS011;8123;50.906;6.172;2023-07-31T07:01:25;9.70;;;5.20;;
16037;SDS011;8123;50.906;6.172;2023-07-31T07:03:51;8.63;;;4.90;;
16037;SDS011;8123;50.906;6.172;2023-07-31T07:06:17;15.13;;;5.67;;
16037;SDS011;8123;50.906;6.172;2023-07-31T07:08:43;8.53;;;5.03;;
16037;SDS011;8123;50.906;6.172;2023-07-31T07:11:09;10.10;;;4.80;;
16037;SDS011;8123;50.906;6.172;2023-07-31T07:13:34;5.70;;;4.10;;
16037;SDS011;8123;50.906;6.172;2023-07-31T07:16:00;10.83;;;4.60;;
16037;SDS011;8123;50.906;6.172;2023-07-31T07:18:27;9.33;;;5.00;;
16037;SDS011;8123;50.906;6.172;2023-07-31T07:20:53;10.27;;;5.20;;
16037;SDS011;8123;50.906;6.172;2023-07-31T07:23:20;9.87;;;4.87;;
16037;SDS011;8123;50.906;6.172;2023-07-31T07:25:46;10.13;;;5.43;;
16037;SDS011;8123;50.906;6.172;2023-07-31T07:28:13;7.47;;;5.00;;
16037;SDS011;8123;50.906;6.172;2023-07-31T07:30:39;10.53;;;4.17;;
16037;SDS011;8123;50.906;6.172;2023-07-31T07:33:05;9.73;;;4.40;;
16037;SDS011;8123;50.906;6.172;2023-07-31T07:35:34;12.77;;;4.60;;
16037;SDS011;8123;50.906;6.172;2023-07-31T07:38:00;8.60;;;4.67;;
16037;SDS011;8123;50.906;6.172;2023-07-31T07:40:27;8.00;;;4.40;;
16037;SDS011;8123;50.906;6.172;2023-07-31T07:42:53;7.17;;;4.30;;
16037;SDS011;8123;50.906;6.172;2023-07-31T07:45:19;11.80;;;5.20;;
16037;SDS011;8123;50.906;6.172;2023-07-31T07:47:44;10.13;;;4.90;;
16037;SDS011;8123;50.906;6.172;2023-07-31T07:50:10;8.90;;;4.97;;
16037;SDS011;8123;50.906;6.172;2023-07-31T07:52:35;12.13;;;5.87;;
16037;SDS011;8123;50.906;6.172;2023-07-31T07:55:01;6.70;;;5.17;;
16037;SDS011;8123;50.906;6.172;2023-07-31T07:57:28;10.60;;;4.40;;
16037;SDS011;8123;50.906;6.172;2023-07-31T07:59:54;12.60;;;4.67;;
16037;SDS011;8123;50.906;6.172;2023-07-31T08:02:20;10.70;;;4.77;;
16037;SDS011;8123;50.906;6.172;2023-07-31T08:04:46;9.30;;;5.87;;
16037;SDS011;8123;50.906;6.172;2023-07-31T08:07:12;7.07;;;5.20;;
16037;SDS011;8123;50.906;6.172;2023-07-31T08:09:38;14.33;;;6.10;;
16037;SDS011;8123;50.906;6.172;2023-07-31T08:12:04;7.47;;;4.70;;
16037;SDS011;8123;50.906;6.172;2023-07-31T08:14:30;11.50;;;4.80;;
16037;SDS011;8123;50.906;6.172;2023-07-31T08:16:56;9.10;;;5.10;;
16037;SDS011;8123;50.906;6.172;2023-07-31T08:19:22;9.40;;;5.30;;
16037;SDS011;8123;50.906;6.172;2023-07-31T08:21:47;7.33;;;4.40;;
16037;SDS011;8123;50.906;6.172;2023-07-31T08:24:13;7.33;;;5.30;;
16037;SDS011;8123;50.906;6.172;2023-07-31T08:26:38;12.83;;;5.73;;
16037;SDS011;8123;50.906;6.172;2023-07-31T08:29:04;8.80;;;4.87;;
16037;SDS011;8123;50.906;6.172;2023-07-31T08:31:30;10.50;;;4.90;;
16037;SDS011;8123;50.906;6.172;2023-07-31T08:33:55;10.57;;;4.50;;
16037;SDS011;8123;50.906;6.172;2023-07-31T08:36:21;10.50;;;4.43;;
16037;SDS011;8123;50.906;6.172;2023-07-31T08:38:47;16.30;;;4.83;;
16037;SDS011;8123;50.906;6.172;2023-07-31T08:41:13;7.10;;;4.87;;
16037;SDS011;8123;50.906;6.172;2023-07-31T08:43:38;12.07;;;5.00;;
16037;SDS011;8123;50.906;6.172;2023-07-31T08:46:05;13.40;;;5.17;;
16037;SDS011;8123;50.906;6.172;2023-07-31T08:48:31;11.70;;;4.80;;
16037;SDS011;8123;50.906;6.172;2023-07-31T08:50:58;5.73;;;4.67;;
16037;SDS011;8123;50.906;6.172;2023-07-31T08:53:24;10.80;;;5.50;;
16037;SDS011;8123;50.906;6.172;2023-07-31T08:55:50;8.23;;;4.60;;
16037;SDS011;8123;50.906;6.172;2023-07-31T08:58:18;8.67;;;5.17;;
16037;SDS011;8123;50.906;6.172;2023-07-31T09:00:45;10.00;;;5.83;;
16037;SDS011;8123;50.906;6.172;2023-07-31T09:05:37;6.40;;;4.57;;
16037;SDS011;8123;50.906;6.172;2023-07-31T09:08:05;7.43;;;5.00;;
16037;SDS011;8123;50.906;6.172;2023-07-31T09:10:33;8.47;;;4.57;;
16037;SDS011;8123;50.906;6.172;2023-07-31T09:12:58;7.50;;;4.97;;
16037;SDS011;8123;50.906;6.172;2023-07-31T09:15:24;9.77;;;5.17;;
16037;SDS011;8123;50.906;6.172;2023-07-31T09:17:58;5.70;;;4.60;;
16037;SDS011;8123;50.906;6.172;2023-07-31T09:20:28;11.90;;;5.83;;
16037;SDS011;8123;50.906;6.172;2023-07-31T09:22:53;15.87;;;4.53;;
16037;SDS011;8123;50.906;6.172;2023-07-31T09:25:26;12.73;;;5.40;;
16037;SDS011;8123;50.906;6.172;2023-07-31T09:27:57;10.00;;;4.93;;
16037;SDS011;8123;50.906;6.172;2023-07-31T09:30:30;11.50;;;5.47;;
16037;SDS011;8123;50.906;6.172;2023-07-31T09:33:04;9.73;;;5.60;;
16037;SDS011;8123;50.906;6.172;2023-07-31T09:35:34;10.23;;;5.33;;
16037;SDS011;8123;50.906;6.172;2023-07-31T09:38:05;10.20;;;5.17;;
16037;SDS011;8123;50.906;6.172;2023-07-31T09:40:38;14.10;;;5.20;;
16037;SDS011;8123;50.906;6.172;2023-07-31T09:43:05;7.87;;;4.50;;
16037;SDS011;8123;50.906;6.172;2023-07-31T09:45:36;8.23;;;5.13;;
16037;SDS011;8123;50.906;6.172;2023-07-31T09:48:07;10.90;;;4.93;;
16037;SDS011;8123;50.906;6.172;2023-07-31T09:50:38;7.13;;;5.50;;
16037;SDS011;8123;50.906;6.172;2023-07-31T09:53:07;16.63;;;6.53;;
16037;SDS011;8123;50.906;6.172;2023-07-31T09:55:33;9.13;;;5.40;;
16037;SDS011;8123;50.906;6.172;2023-07-31T09:57:59;6.50;;;4.50;;
16037;SDS011;8123;50.906;6.172;2023-07-31T10:00:28;7.20;;;4.73;;
16037;SDS011;8123;50.906;6.172;2023-07-31T10:02:57;8.57;;;5.23;;
16037;SDS011;8123;50.906;6.172;2023-07-31T10:05:24;16.47;;;7.43;;
16037;SDS011;8123;50.906;6.172;2023-07-31T10:07:56;13.77;;;6.80;;
16037;SDS011;8123;50.906;6.172;2023-07-31T10:10:22;6.57;;;4.90;;
16037;SDS011;8123;50.906;6.172;2023-07-31T10:12:50;16.73;;;5.90;;
16037;SDS011;8123;50.906;6.172;2023-07-31T10:15:17;8.43;;;5.33;;
16037;SDS011;8123;50.906;6.172;2023-07-31T10:17:44;6.83;;;4.57;;
16037;SDS011;8123;50.906;6.172;2023-07-31T10:20:11;7.47;;;4.73;;
16037;SDS011;8123;50.906;6.172;2023-07-31T10:22:37;4.67;;;3.70;;
16037;SDS011;8123;50.906;6.172;2023-07-31T10:25:04;7.57;;;4.13;;
16037;SDS011;8123;50.906;6.172;2023-07-31T10:27:32;9.53;;;3.73;;
16037;SDS011;8123;50.906;6.172;2023-07-31T10:30:08;6.90;;;3.53;;
16037;SDS011;8123;50.906;6.172;2023-07-31T10:32:40;11.77;;;3.70;;
16037;SDS011;8123;50.906;6.172;2023-07-31T10:35:08;6.33;;;3.20;;
16037;SDS011;8123;50.906;6.172;2023-07-31T10:37:39;8.40;;;3.43;;
16037;SDS011;8123;50.906;6.172;2023-07-31T10:40:09;3.50;;;3.13;;
16037;SDS011;8123;50.906;6.172;2023-07-31T10:42:51;3.40;;;3.10;;
16037;SDS011;8123;50.906;6.172;2023-07-31T10:45:25;6.10;;;3.40;;
16037;SDS011;8123;50.906;6.172;2023-07-31T10:48:00;4.83;;;2.90;;
16037;SDS011;8123;50.906;6.172;2023-07-31T10:50:27;6.63;;;3.30;;
16037;SDS011;8123;50.906;6.172;2023-07-31T10:52:57;2.40;;;2.10;;
16037;SDS011;8123;50.906;6.172;2023-07-31T10:57:53;4.60;;;2.27;;
16037;SDS011;8123;50.906;6.172;2023-07-31T11:02:58;3.77;;;3.10;;
16037;SDS011;8123;50.906;6.172;2023-07-31T11:08:29;3.87;;;2.90;;
16037;SDS011;8123;50.906;6.172;2023-07-31T11:15:58;4.13;;;2.87;;
16037;SDS011;8123;50.906;6.172;2023-07-31T11:18:25;5.57;;;3.00;;
16037;SDS011;8123;50.906;6.172;2023-07-31T11:20:52;2.97;;;2.67;;
16037;SDS011;8123;50.906;6.172;2023-07-31T11:23:19;3.73;;;2.87;;
16037;SDS011;8123;50.906;6.172;2023-07-31T11:25:45;5.00;;;2.70;;
16037;SDS011;8123;50.906;6.172;2023-07-31T11:28:11;4.40;;;2.33;;
16037;SDS011;8123;50.906;6.172;2023-07-31T11:30:38;3.30;;;2.63;;
16037;SDS011;8123;50.906;6.172;2023-07-31T11:33:08;7.83;;;3.20;;
16037;SDS011;8123;50.906;6.172;2023-07-31T11:35:36;3.80;;;3.00;;
16037;SDS011;8123;50.906;6.172;2023-07-31T11:38:12;5.53;;;3.40;;
16037;SDS011;8123;50.906;6.172;2023-07-31T11:40:47;5.00;;;3.30;;
16037;SDS011;8123;50.906;6.172;2023-07-31T11:43:13;3.40;;;3.10;;
16037;SDS011;8123;50.906;6.172;2023-07-31T11:45:42;5.60;;;3.30;;
16037;SDS011;8123;50.906;6.172;2023-07-31T11:48:35;3.80;;;3.43;;
16037;SDS011;8123;50.906;6.172;2023-07-31T11:51:06;3.97;;;3.27;;
16037;SDS011;8123;50.906;6.172;2023-07-31T11:53:49;4.70;;;3.47;;
16037;SDS011;8123;50.906;6.172;2023-07-31T11:56:19;5.93;;;4.10;;
16037;SDS011;8123;50.906;6.172;2023-07-31T11:58:46;11.33;;;4.37;;
16037;SDS011;8123;50.906;6.172;2023-07-31T12:01:14;8.60;;;5.23;;
16037;SDS011;8123;50.906;6.172;2023-07-31T12:03:43;9.10;;;4.77;;
16037;SDS011;8123;50.906;6.172;2023-07-31T12:06:10;6.13;;;4.13;;
16037;SDS011;8123;50.906;6.172;2023-07-31T12:08:36;4.17;;;3.77;;
16037;SDS011;8123;50.906;6.172;2023-07-31T12:11:02;5.97;;;4.10;;
16037;SDS011;8123;50.906;6.172;2023-07-31T12:13:30;6.70;;;4.60;;
16037;SDS011;8123;50.906;6.172;2023-07-31T12:15:57;6.47;;;4.30;;
16037;SDS011;8123;50.906;6.172;2023-07-31T12:18:29;6.30;;;4.80;;
16037;SDS011;8123;50.906;6.172;2023-07-31T12:21:05;8.13;;;4.00;;
16037;SDS011;8123;50.906;6.172;2023-07-31T12:23:32;6.60;;;3.93;;
16037;SDS011;8123;50.906;6.172;2023-07-31T12:26:05;10.00;;;5.10;;
16037;SDS011;8123;50.906;6.172;2023-07-31T12:28:50;5.87;;;4.03;;
16037;SDS011;8123;50.906;6.172;2023-07-31T12:31:22;6.50;;;4.87;;
16037;SDS011;8123;50.906;6.172;2023-07-31T12:33:49;7.77;;;5.10;;
16037;SDS011;8123;50.906;6.172;2023-07-31T12:36:16;10.80;;;4.90;;
16037;SDS011;8123;50.906;6.172;2023-07-31T12:38:45;6.80;;;4.40;;
16037;SDS011;8123;50.906;6.172;2023-07-31T12:41:11;8.03;;;4.47;;
16037;SDS011;8123;50.906;6.172;2023-07-31T12:43:38;7.33;;;5.23;;
16037;SDS011;8123;50.906;6.172;2023-07-31T12:46:05;5.03;;;4.47;;
16037;SDS011;8123;50.906;6.172;2023-07-31T12:48:32;10.60;;;4.70;;
16037;SDS011;8123;50.906;6.172;2023-07-31T12:50:59;4.80;;;4.23;;
16037;SDS011;8123;50.906;6.172;2023-07-31T12:53:24;11.60;;;4.90;;
16037;SDS011;8123;50.906;6.172;2023-07-31T12:55:50;6.53;;;4.63;;
16037;SDS011;8123;50.906;6.172;2023-07-31T12:58:16;4.40;;;3.73;;
16037;SDS011;8123;50.906;6.172;2023-07-31T13:00:41;4.13;;;3.70;;
16037;SDS011;8123;50.906;6.172;2023-07-31T13:03:07;6.97;;;4.60;;
16037;SDS011;8123;50.906;6.172;2023-07-31T13:05:33;6.70;;;4.93;;
16037;SDS011;8123;50.906;6.172;2023-07-31T13:07:59;7.27;;;4.47;;
16037;SDS011;8123;50.906;6.172;2023-07-31T13:10:24;4.03;;;3.60;;
16037;SDS011;8123;50.906;6.172;2023-07-31T13:12:52;11.10;;;3.70;;
16037;SDS011;8123;50.906;6.172;2023-07-31T13:15:18;6.90;;;4.10;;
16037;SDS011;8123;50.906;6.172;2023-07-31T13:17:45;4.53;;;3.43;;
16037;SDS011;8123;50.906;6.172;2023-07-31T13:20:11;4.10;;;3.70;;
16037;SDS011;8123;50.906;6.172;2023-07-31T13:22:37;5.00;;;3.87;;
16037;SDS011;8123;50.906;6.172;2023-07-31T13:25:02;6.23;;;3.70;;
16037;SDS011;8123;50.906;6.172;2023-07-31T13:27:28;4.40;;;3.63;;
16037;SDS011;8123;50.906;6.172;2023-07-31T13:29:54;13.93;;;3.37;;
16037;SDS011;8123;50.906;6.172;2023-07-31T13:32:20;4.37;;;3.37;;
16037;SDS011;8123;50.906;6.172;2023-07-31T13:34:46;4.20;;;3.67;;
16037;SDS011;8123;50.906;6.172;2023-07-31T13:37:12;6.93;;;4.20;;
16037;SDS011;8123;50.906;6.172;2023-07-31T13:39:39;4.77;;;3.80;;
16037;SDS011;8123;50.906;6.172;2023-07-31T13:42:05;4.83;;;3.90;;
16037;SDS011;8123;50.906;6.172;2023-07-31T13:44:33;8.17;;;4.40;;
16037;SDS011;8123;50.906;6.172;2023-07-31T13:47:02;10.97;;;4.50;;
16037;SDS011;8123;50.906;6.172;2023-07-31T13:49:28;9.57;;;4.57;;
16037;SDS011;8123;50.906;6.172;2023-07-31T13:51:54;9.07;;;4.70;;
16037;SDS011;8123;50.906;6.172;2023-07-31T13:54:20;9.60;;;5.60;;
16037;SDS011;8123;50.906;6.172;2023-07-31T13:56:45;7.70;;;4.43;;
16037;SDS011;8123;50.906;6.172;2023-07-31T13:59:11;6.20;;;4.53;;
16037;SDS011;8123;50.906;6.172;2023-07-31T14:01:37;6.10;;;4.10;;
16037;SDS011;8123;50.906;6.172;2023-07-31T14:04:03;6.20;;;4.53;;
16037;SDS011;8123;50.906;6.172;2023-07-31T14:06:28;5.83;;;4.17;;
16037;SDS011;8123;50.906;6.172;2023-07-31T14:08:54;7.57;;;4.83;;
16037;SDS011;8123;50.906;6.172;2023-07-31T14:11:20;9.17;;;5.53;;
16037;SDS011;8123;50.906;6.172;2023-07-31T14:13:49;7.50;;;4.40;;
16037;SDS011;8123;50.906;6.172;2023-07-31T14:16:16;4.87;;;4.37;;
16037;SDS011;8123;50.906;6.172;2023-07-31T14:18:42;8.50;;;4.77;;
16037;SDS011;8123;50.906;6.172;2023-07-31T14:21:08;9.30;;;4.83;;
16037;SDS011;8123;50.906;6.172;2023-07-31T14:23:34;6.67;;;4.60;;
16037;SDS011;8123;50.906;6.172;2023-07-31T14:25:59;9.67;;;5.03;;
16037;SDS011;8123;50.906;6.172;2023-07-31T14:28:25;7.07;;;4.30;;
16037;SDS011;8123;50.906;6.172;2023-07-31T14:30:51;10.60;;;4.87;;
16037;SDS011;8123;50.906;6.172;2023-07-31T14:33:16;9.90;;;5.20;;
16037;SDS011;8123;50.906;6.172;2023-07-31T14:35:42;5.20;;;4.67;;
16037;SDS011;8123;50.906;6.172;2023-07-31T14:38:08;6.30;;;5.00;;
16037;SDS011;8123;50.906;6.172;2023-07-31T14:40:34;6.20;;;4.50;;
16037;SDS011;8123;50.906;6.172;2023-07-31T14:42:59;6.23;;;4.97;;
16037;SDS011;8123;50.906;6.172;2023-07-31T14:45:25;6.67;;;4.50;;
16037;SDS011;8123;50.906;6.172;2023-07-31T14:47:50;7.00;;;4.70;;
16037;SDS011;8123;50.906;6.172;2023-07-31T14:50:16;12.70;;;4.83;;
16037;SDS011;8123;50.906;6.172;2023-07-31T14:52:42;8.63;;;4.53;;
16037;SDS011;8123;50.906;6.172;2023-07-31T14:55:07;6.47;;;4.30;;
16037;SDS011;8123;50.906;6.172;2023-07-31T14:57:34;9.00;;;5.37;;
16037;SDS011;8123;50.906;6.172;2023-07-31T15:00:00;7.10;;;5.10;;
16037;SDS011;8123;50.906;6.172;2023-07-31T15:02:26;8.50;;;5.40;;
16037;SDS011;8123;50.906;6.172;2023-07-31T15:04:52;10.77;;;4.87;;
16037;SDS011;8123;50.906;6.172;2023-07-31T15:07:18;6.40;;;4.60;;
16037;SDS011;8123;50.906;6.172;2023-07-31T15:09:43;7.60;;;4.73;;